This is the latest recevied weather packets stored in our database for station/object DD8XX-10. If no packets are shown the sender has not sent any weather packets the latest 1 day(s).
| Time | Temp. | Humidity | Pressure | Rain* | Wind** | Luminosity | Snow |
|---|---|---|---|---|---|---|---|
| 1777788742 | 15° C | 48% | 1022.7 hPa | - | - | - | - |
| 1777787842 | 14.44° C | 51% | 1022.7 hPa | - | - | - | - |
| 1777786942 | 12.78° C | 56% | 1022.8 hPa | - | - | - | - |
| 1777786042 | 12.78° C | 54% | 1022.7 hPa | - | - | - | - |
| 1777785141 | 11.67° C | 58% | 1022.8 hPa | - | - | - | - |
| 1777784241 | 10.56° C | 64% | 1023 hPa | - | - | - | - |
| 1777783341 | 10° C | 66% | 1023.1 hPa | - | - | - | - |
| 1777782441 | 10° C | 66% | 1023 hPa | - | - | - | - |
| 1777781541 | 10° C | 67% | 1023.1 hPa | - | - | - | - |
| 1777780641 | 10° C | 65% | 1023 hPa | - | - | - | - |
| 1777779741 | 10° C | 67% | 1022.9 hPa | - | - | - | - |
| 1777778841 | 10° C | 67% | 1023 hPa | - | - | - | - |
| 1777777940 | 10° C | 68% | 1023 hPa | - | - | - | - |
| 1777777040 | 10° C | 66% | 1023 hPa | - | - | - | - |
| 1777776140 | 10.56° C | 65% | 1023 hPa | - | - | - | - |
| 1777775240 | 11.67° C | 58% | 1022.9 hPa | - | - | - | - |
| 1777774337 | 11.11° C | 62% | 1023 hPa | - | - | - | - |
| 1777773437 | 11.11° C | 62% | 1023 hPa | - | - | - | - |
| 1777772537 | 11.11° C | 63% | 1023 hPa | - | - | - | - |
| 1777771637 | 10.56° C | 63% | 1023.1 hPa | - | - | - | - |
| 1777770737 | 11.11° C | 63% | 1023.2 hPa | - | - | - | - |
| 1777769836 | 11.11° C | 63% | 1023.1 hPa | - | - | - | - |
| 1777768936 | 11.11° C | 63% | 1023.2 hPa | - | - | - | - |
| 1777768036 | 11.11° C | 64% | 1023.3 hPa | - | - | - | - |
| 1777767136 | 11.67° C | 60% | 1023.3 hPa | - | - | - | - |
* Rain since midnight (hover to see other rain measurements)
** Current wind speed in m/s (hover to see current wind gust speed)